createdAt,value
2022-11-24T15:50:50.986Z,9.93
2022-11-24T15:53:25.877Z,6.55
2022-11-24T15:55:52.669Z,7.50
2022-11-24T15:58:19.163Z,7.32
2022-11-24T16:00:45.806Z,6.85
2022-11-24T16:03:45.198Z,9.35
2022-11-24T16:05:58.849Z,8.10
2022-11-24T16:08:25.359Z,6.07
2022-11-24T16:10:51.793Z,5.60
2022-11-24T16:13:18.279Z,8.48
2022-11-24T16:15:45.345Z,9.13
2022-11-24T16:18:13.872Z,12.10
2022-11-24T16:23:06.799Z,9.68
2022-11-24T16:25:33.257Z,8.45
2022-11-24T16:27:59.780Z,11.80
2022-11-24T16:30:26.324Z,13.25
2022-11-24T16:32:52.888Z,9.18
2022-11-24T16:35:20.059Z,8.27
2022-11-24T16:37:46.693Z,6.97
2022-11-24T16:40:13.441Z,11.85
2022-11-24T16:43:12.832Z,8.68
2022-11-24T16:46:18.662Z,10.02
2022-11-24T16:48:45.943Z,8.85
2022-11-24T16:51:43.411Z,8.27
2022-11-24T16:54:09.930Z,8.98
2022-11-24T16:56:58.079Z,7.07
2022-11-24T16:59:24.559Z,7.75
2022-11-24T17:01:51.132Z,7.22
2022-11-24T17:04:17.960Z,6.10
2022-11-24T17:06:44.480Z,8.32
2022-11-24T17:09:13.949Z,9.80
2022-11-24T17:11:40.526Z,10.85
2022-11-24T17:14:07.010Z,8.32
2022-11-24T17:16:33.506Z,9.57
2022-11-24T17:19:00.058Z,20.38
2022-11-24T17:21:27.434Z,15.68
2022-11-24T17:23:55.343Z,16.63
2022-11-24T17:26:35.386Z,12.57
2022-11-24T17:29:01.904Z,17.45
2022-11-24T17:31:37.319Z,11.98
2022-11-24T17:34:04.422Z,17.75
2022-11-24T17:36:31.524Z,11.55
2022-11-24T17:39:01.254Z,13.57
2022-11-24T17:41:28.020Z,19.73
2022-11-24T17:43:55.921Z,22.17
2022-11-24T17:46:23.816Z,16.90
2022-11-24T17:48:50.369Z,19.05
2022-11-24T17:51:18.042Z,15.82
2022-11-24T17:53:46.579Z,14.95
2022-11-24T17:58:42.857Z,11.48
2022-11-24T18:01:10.588Z,10.68
2022-11-24T18:03:38.646Z,16.95
2022-11-24T18:06:09.612Z,15.55
2022-11-24T18:08:51.225Z,14.02
2022-11-24T18:11:23.544Z,12.50
2022-11-24T18:14:00.155Z,11.52
2022-11-24T18:16:30.042Z,14.70
2022-11-24T18:19:07.815Z,9.48
2022-11-24T18:21:35.114Z,12.20
2022-11-24T18:24:01.903Z,12.15
2022-11-24T18:26:28.640Z,11.60
2022-11-24T18:28:55.359Z,12.48
2022-11-24T18:31:22.411Z,11.45
2022-11-24T18:33:49.069Z,13.05
2022-11-24T18:36:17.208Z,12.73
2022-11-24T18:38:43.682Z,13.95
2022-11-24T18:41:10.982Z,11.43
2022-11-24T18:43:38.158Z,12.68
2022-11-24T18:46:09.653Z,11.60
2022-11-24T18:48:36.169Z,11.32
2022-11-24T18:51:03.122Z,12.77
2022-11-24T18:53:29.699Z,13.95
2022-11-24T18:55:57.253Z,14.40
2022-11-24T18:58:24.882Z,11.40
2022-11-24T19:00:52.104Z,11.30
2022-11-24T19:03:18.677Z,10.13
2022-11-24T19:05:45.239Z,13.40
2022-11-24T19:08:11.787Z,10.20
2022-11-24T19:10:38.860Z,10.25
2022-11-24T19:13:05.390Z,11.48
2022-11-24T19:15:33.406Z,9.57
2022-11-24T19:18:00.011Z,9.02
2022-11-24T19:20:26.586Z,10.75
2022-11-24T19:22:53.954Z,12.63
2022-11-24T19:25:20.630Z,12.43
2022-11-24T19:27:47.124Z,13.60
2022-11-24T19:30:13.705Z,13.27
2022-11-24T19:32:40.182Z,10.00
2022-11-24T19:35:07.063Z,14.25
2022-11-24T19:37:33.554Z,11.98
2022-11-24T19:40:00.152Z,10.18
2022-11-24T19:42:26.666Z,13.48
2022-11-24T19:44:56.579Z,13.13
2022-11-24T19:47:23.353Z,11.85
2022-11-24T19:49:49.835Z,11.77
2022-11-24T19:52:16.563Z,9.95
2022-11-24T19:54:43.261Z,13.88
2022-11-24T19:57:09.958Z,15.85
2022-11-24T19:59:36.512Z,12.70
2022-11-24T20:02:03.083Z,11.52
2022-11-24T20:04:29.636Z,13.60
2022-11-24T20:06:56.101Z,12.73
2022-11-24T20:09:25.435Z,14.32
2022-11-24T20:11:52.244Z,13.85
2022-11-24T20:14:19.477Z,13.10
2022-11-24T20:16:48.054Z,15.52
2022-11-24T20:19:15.526Z,16.30
2022-11-24T20:21:46.210Z,13.57
2022-11-24T20:24:14.010Z,16.27
2022-11-24T20:26:42.584Z,17.13
2022-11-24T20:29:11.464Z,13.13
2022-11-24T20:31:39.452Z,15.50
2022-11-24T20:34:06.415Z,12.32
2022-11-24T20:36:33.902Z,13.85
2022-11-24T20:39:01.667Z,14.60
2022-11-24T20:41:29.427Z,15.65
2022-11-24T20:43:58.168Z,16.05
2022-11-24T20:46:26.774Z,14.60
2022-11-24T20:51:22.228Z,19.58
2022-11-24T20:53:50.901Z,16.38
2022-11-24T20:56:18.939Z,22.50
2022-11-24T20:58:45.558Z,23.58
2022-11-24T21:01:14.406Z,14.32
2022-11-24T21:03:43.413Z,17.77
2022-11-24T21:06:11.216Z,16.85
2022-11-24T21:08:38.911Z,18.47
2022-11-24T21:11:06.708Z,17.47
2022-11-24T21:13:34.176Z,14.32
2022-11-24T21:16:06.596Z,14.50
2022-11-24T21:18:33.740Z,13.88
2022-11-24T21:21:03.145Z,12.55
2022-11-24T21:23:29.649Z,13.05
2022-11-24T21:26:05.535Z,12.57
2022-11-24T21:28:33.044Z,19.88
2022-11-24T21:31:09.947Z,19.40
2022-11-24T21:33:44.826Z,16.42
2022-11-24T21:36:11.754Z,15.30
2022-11-24T21:38:38.250Z,17.58
